Time;durP1;ratioP1;P1;durP2;ratioP2;P2;SDS_P1;SDS_P2;PMS_P1;PMS_P2;Temp;Humidity;BMP_temperature;BMP_pressure;BME280_temperature;BME280_humidity;BME280_pressure;Samples;Min_cycle;Max_cycle;Signal;HPM_P1;HPM_P2
2023/03/27 00:02:07;;;;;;;2.10;0.88;;;;;;;4.19;100.00;92861.53;5048549;28;20543;-66
2023/03/27 00:04:34;;;;;;;2.83;1.10;;;;;;;4.07;100.00;92861.28;5049222;28;20045;-66
2023/03/27 00:07:02;;;;;;;3.17;1.10;;;;;;;4.08;100.00;92862.78;5048867;28;20082;-67
2023/03/27 00:09:31;;;;;;;2.25;1.15;;;;;;;4.26;100.00;92870.81;5046916;28;20256;-67
2023/03/27 00:11:59;;;;;;;2.40;0.95;;;;;;;4.02;100.00;92870.59;5048786;28;20090;-67
2023/03/27 00:14:26;;;;;;;2.40;1.30;;;;;;;4.20;100.00;92875.88;5048384;28;20047;-66
2023/03/27 00:16:53;;;;;;;3.13;1.13;;;;;;;4.20;100.00;92882.09;5048747;28;20049;-66
2023/03/27 00:19:20;;;;;;;2.50;1.10;;;;;;;4.15;100.00;92879.03;5046936;28;20426;-66
2023/03/27 00:21:47;;;;;;;2.47;1.40;;;;;;;4.27;100.00;92881.28;5049000;28;20045;-65
2023/03/27 00:24:14;;;;;;;3.42;1.50;;;;;;;4.15;100.00;92881.75;5048212;28;20396;-65
2023/03/27 00:26:41;;;;;;;2.90;1.50;;;;;;;4.04;100.00;92892.69;5048838;28;20045;-67
2023/03/27 00:29:09;;;;;;;3.03;1.30;;;;;;;4.06;100.00;92893.06;5033445;28;20496;-66
2023/03/27 00:31:36;;;;;;;2.42;1.10;;;;;;;3.93;100.00;92892.75;5048826;28;20048;-65
2023/03/27 00:34:02;;;;;;;3.00;1.35;;;;;;;3.88;100.00;92890.47;5048075;28;20040;-65
2023/03/27 00:36:30;;;;;;;3.30;1.40;;;;;;;3.74;100.00;92904.13;5048879;28;20377;-66
2023/03/27 00:38:56;;;;;;;2.90;1.60;;;;;;;3.83;100.00;92903.69;5055786;28;20511;-65
2023/03/27 00:41:23;;;;;;;4.90;1.80;;;;;;;3.94;100.00;92902.47;5048638;28;20043;-66
2023/03/27 00:43:53;;;;;;;4.93;2.67;;;;;;;4.00;100.00;92909.00;5047406;28;20116;-66
2023/03/27 00:46:26;;;;;;;3.58;1.67;;;;;;;4.08;100.00;92908.94;5028420;28;20048;-67
2023/03/27 00:48:55;;;;;;;2.78;1.58;;;;;;;3.90;100.00;92912.53;5036263;28;20470;-66
2023/03/27 00:51:24;;;;;;;2.88;1.42;;;;;;;3.80;100.00;92910.66;5050857;28;20049;-65
2023/03/27 00:53:51;;;;;;;3.07;1.33;;;;;;;3.66;100.00;92916.94;5048731;28;20033;-65
2023/03/27 00:56:18;;;;;;;2.35;1.25;;;;;;;3.66;100.00;92919.66;5048075;28;20044;-65
2023/03/27 00:58:50;;;;;;;3.15;1.23;;;;;;;3.75;100.00;92919.25;5048564;28;20076;-66
2023/03/27 01:01:18;;;;;;;3.63;1.30;;;;;;;3.82;100.00;92919.19;5051613;28;20047;-65
2023/03/27 01:03:47;;;;;;;2.72;1.30;;;;;;;3.52;100.00;92917.81;5052499;28;20059;-66
2023/03/27 01:06:15;;;;;;;2.20;1.30;;;;;;;3.66;100.00;92913.47;5051585;28;20241;-65
2023/03/27 01:08:44;;;;;;;2.63;1.60;;;;;;;3.77;100.00;92916.91;5051857;28;20035;-65
2023/03/27 01:11:26;;;;;;;2.10;1.30;;;;;;;3.55;100.00;92916.25;5051503;28;20044;-65
2023/03/27 01:14:10;;;;;;;2.33;1.17;;;;;;;3.60;100.00;92929.38;5051941;28;20041;-65
2023/03/27 01:16:53;;;;;;;2.35;1.27;;;;;;;3.67;100.00;92917.75;5066335;28;20049;-65
2023/03/27 01:19:56;;;;;;;13.50;7.63;;;;;;;3.63;100.00;92933.28;5051176;28;20068;-65
2023/03/27 01:22:46;;;;;;;5.88;2.88;;;;;;;3.73;100.00;92927.00;5051334;28;20059;-66
2023/03/27 01:25:52;;;;;;;4.43;1.95;;;;;;;3.73;100.00;92937.88;5051005;28;20045;-66
2023/03/27 01:28:49;;;;;;;2.00;1.10;;;;;;;3.52;100.00;92933.31;5051368;28;20045;-66
2023/03/27 01:31:44;;;;;;;2.80;1.10;;;;;;;3.57;100.00;92941.81;5040440;28;20045;-66
2023/03/27 01:34:32;;;;;;;2.10;1.23;;;;;;;3.59;100.00;92946.84;5050963;28;20040;-66
2023/03/27 01:37:23;;;;;;;2.15;1.38;;;;;;;3.64;100.00;92951.84;5051432;28;20041;-66
2023/03/27 01:40:19;;;;;;;2.28;1.23;;;;;;;3.73;100.00;92960.34;5057929;28;20680;-66
2023/03/27 01:43:14;;;;;;;2.25;1.30;;;;;;;3.64;100.00;92957.28;5038315;28;20202;-66
2023/03/27 01:45:51;;;;;;;2.33;1.50;;;;;;;3.65;100.00;92961.53;5015725;28;20337;-66
2023/03/27 01:48:33;;;;;;;2.40;1.47;;;;;;;3.62;100.00;92965.03;5014479;28;20523;-66
2023/03/27 01:51:13;;;;;;;3.08;1.75;;;;;;;3.63;100.00;92976.69;5031358;28;20482;-66
2023/03/27 01:54:20;;;;;;;2.63;1.52;;;;;;;3.58;100.00;92973.22;5030352;28;20826;-66
2023/03/27 01:57:07;;;;;;;2.20;1.30;;;;;;;3.56;100.00;92978.25;5016623;28;20240;-66
2023/03/27 01:59:38;;;;;;;2.65;1.40;;;;;;;3.72;100.00;92980.50;5030433;28;20126;-66
2023/03/27 02:02:13;;;;;;;2.10;1.20;;;;;;;3.46;100.00;92989.91;5017704;28;20487;-66
2023/03/27 02:04:46;;;;;;;2.38;1.40;;;;;;;3.55;100.00;92981.34;5031252;28;20045;-66
2023/03/27 02:07:18;;;;;;;2.53;1.63;;;;;;;3.31;100.00;92994.59;5030567;28;20043;-66
2023/03/27 02:09:49;;;;;;;2.58;1.70;;;;;;;3.30;100.00;93009.34;5031286;28;20037;-66
2023/03/27 02:12:29;;;;;;;2.50;1.50;;;;;;;3.32;100.00;93000.78;5029528;28;20102;-66
2023/03/27 02:15:03;;;;;;;2.40;1.40;;;;;;;3.39;100.00;93009.69;5031150;28;20040;-66
2023/03/27 02:18:03;;;;;;;2.50;1.40;;;;;;;3.46;100.00;93000.78;5020550;28;20469;-66
2023/03/27 02:20:36;;;;;;;2.40;1.45;;;;;;;3.23;100.00;93022.91;5028555;28;20038;-66
2023/03/27 02:23:03;;;;;;;1.90;1.20;;;;;;;3.15;100.00;93019.41;5030566;28;20033;-66
2023/03/27 02:25:35;;;;;;;2.35;1.15;;;;;;;3.03;100.00;93019.84;5030835;28;20110;-66
2023/03/27 02:28:21;;;;;;;2.00;1.17;;;;;;;3.07;100.00;93025.25;5030372;28;20037;-65
2023/03/27 02:31:00;;;;;;;2.60;1.38;;;;;;;2.95;100.00;93032.63;5030500;28;20041;-66
2023/03/27 02:34:05;;;;;;;2.50;1.80;;;;;;;3.07;100.00;93036.09;5029742;28;20586;-66
2023/03/27 02:37:02;;;;;;;6.00;1.30;;;;;;;3.16;100.00;93048.09;5029611;28;20747;-66
2023/03/27 02:39:55;;;;;;;2.33;1.30;;;;;;;3.14;100.00;93049.63;5029779;28;21647;-66
2023/03/27 02:42:31;;;;;;;2.20;1.20;;;;;;;3.29;100.00;93053.09;5029832;28;20049;-66
2023/03/27 02:45:08;;;;;;;2.10;1.20;;;;;;;3.32;100.00;93063.94;5030395;28;20061;-66
2023/03/27 02:47:48;;;;;;;2.40;1.38;;;;;;;3.08;100.00;93060.09;5029250;28;21720;-66
2023/03/27 02:50:20;;;;;;;2.28;1.20;;;;;;;3.19;100.00;93068.22;5029612;28;20470;-65
2023/03/27 02:52:52;;;;;;;2.00;1.13;;;;;;;3.27;100.00;93066.28;5030147;28;20425;-66
2023/03/27 02:55:34;;;;;;;2.00;1.10;;;;;;;3.22;100.00;93082.94;5029682;28;20051;-66
2023/03/27 02:58:11;;;;;;;2.53;1.40;;;;;;;3.09;100.00;93075.19;5029838;28;20293;-66
2023/03/27 03:00:47;;;;;;;2.50;1.65;;;;;;;3.12;100.00;93087.19;5029105;28;20393;-66
2023/03/27 03:03:26;;;;;;;2.33;1.20;;;;;;;2.97;100.00;93095.34;5029560;28;20048;-66
2023/03/27 03:05:54;;;;;;;2.50;1.70;;;;;;;2.93;100.00;93093.78;5030085;28;20417;-66
2023/03/27 03:08:22;;;;;;;2.63;1.63;;;;;;;2.95;100.00;93102.31;5029674;28;20044;-66
2023/03/27 03:10:48;;;;;;;2.60;1.63;;;;;;;2.93;100.00;93108.09;5030109;28;20075;-66
2023/03/27 03:13:16;;;;;;;2.90;1.80;;;;;;;2.91;100.00;93104.25;5029409;28;20432;-66
2023/03/27 03:15:44;;;;;;;2.70;1.70;;;;;;;3.01;100.00;93117.03;5019498;28;20540;-66
2023/03/27 03:18:11;;;;;;;3.00;1.80;;;;;;;3.10;100.00;93116.63;5011785;28;20493;-66
2023/03/27 03:20:38;;;;;;;3.07;1.60;;;;;;;3.23;100.00;93119.75;5029976;28;20075;-66
2023/03/27 03:23:05;;;;;;;2.50;1.38;;;;;;;2.93;100.00;93137.16;5029126;28;20064;-66
2023/03/27 03:25:32;;;;;;;3.03;1.63;;;;;;;2.95;100.00;93137.53;5029520;28;20045;-66
2023/03/27 03:27:59;;;;;;;2.30;1.30;;;;;;;3.02;100.00;93137.56;5045623;28;20037;-66
2023/03/27 03:30:29;;;;;;;2.90;1.75;;;;;;;3.03;100.00;93154.59;5047766;28;20055;-66
2023/03/27 03:32:57;;;;;;;2.50;1.50;;;;;;;2.80;100.00;93147.59;5049381;28;20033;-66
2023/03/27 03:35:23;;;;;;;3.00;1.60;;;;;;;2.84;100.00;93153.00;5048829;28;20105;-66
2023/03/27 03:37:51;;;;;;;2.58;1.63;;;;;;;3.02;100.00;93161.97;5051491;28;20535;-66
2023/03/27 03:40:19;;;;;;;2.90;1.67;;;;;;;2.86;100.00;93162.31;5064707;28;20041;-65
2023/03/27 03:42:48;;;;;;;3.08;1.70;;;;;;;2.90;100.00;93181.31;5047897;28;20039;-65
2023/03/27 03:45:15;;;;;;;2.77;1.60;;;;;;;2.87;100.00;93182.81;5048818;28;20275;-66
2023/03/27 03:47:43;;;;;;;2.65;1.40;;;;;;;2.84;100.00;93182.81;5048975;28;20043;-66
2023/03/27 03:50:11;;;;;;;13.93;6.72;;;;;;;2.89;100.00;93183.22;5051715;28;20040;-65
2023/03/27 03:52:38;;;;;;;3.20;1.77;;;;;;;2.74;100.00;93195.97;5049969;28;20052;-66
2023/03/27 03:55:05;;;;;;;3.50;1.95;;;;;;;2.60;100.00;93193.22;5048991;28;20078;-65
2023/03/27 03:57:32;;;;;;;3.40;1.70;;;;;;;2.67;100.00;93206.78;5048872;28;20044;-65
2023/03/27 03:59:59;;;;;;;3.15;1.60;;;;;;;2.73;100.00;93210.66;5049270;28;20094;-66
2023/03/27 04:02:29;;;;;;;4.82;2.42;;;;;;;2.63;100.00;93219.53;5048173;28;20492;-65
2023/03/27 04:04:58;;;;;;;3.95;2.00;;;;;;;2.67;100.00;93224.97;5049130;28;20029;-66
2023/03/27 04:07:34;;;;;;;4.18;2.10;;;;;;;2.73;100.00;93226.16;5048481;28;20106;-65
2023/03/27 04:10:02;;;;;;;3.90;2.17;;;;;;;2.64;100.00;93240.06;5049040;28;20098;-66
2023/03/27 04:12:29;;;;;;;4.55;2.25;;;;;;;2.59;100.00;93246.59;5047779;28;20375;-67
2023/03/27 04:14:56;;;;;;;5.72;2.97;;;;;;;2.43;100.00;93243.44;5044939;28;20385;-65
2023/03/27 04:17:25;;;;;;;5.00;2.70;;;;;;;2.34;100.00;93265.47;5044143;28;20414;-65
2023/03/27 04:19:56;;;;;;;5.05;3.05;;;;;;;2.38;100.00;93265.47;5042889;28;20029;-65
2023/03/27 04:22:25;;;;;;;5.63;3.17;;;;;;;2.27;100.00;93270.06;5047071;28;20354;-65
2023/03/27 04:24:52;;;;;;;5.47;3.08;;;;;;;2.22;100.00;93273.13;5047516;28;20489;-66
2023/03/27 04:27:22;;;;;;;6.53;3.72;;;;;;;2.25;100.00;93270.44;5048240;28;20040;-65
2023/03/27 04:29:48;;;;;;;7.18;3.35;;;;;;;2.38;100.00;93273.59;5048833;28;20469;-66
2023/03/27 04:32:18;;;;;;;6.78;3.70;;;;;;;2.32;100.00;93283.25;5033932;28;20037;-66
2023/03/27 04:34:47;;;;;;;8.03;4.33;;;;;;;2.20;100.00;93278.91;5050780;28;20380;-66
2023/03/27 04:37:13;;;;;;;7.60;3.85;;;;;;;2.18;100.00;93271.16;5051953;28;20048;-66
2023/03/27 04:39:42;;;;;;;8.95;4.65;;;;;;;2.12;100.00;93286.22;5059182;28;20033;-66
2023/03/27 04:42:09;;;;;;;9.18;5.07;;;;;;;2.00;100.00;93279.16;5052031;28;20037;-66
2023/03/27 04:44:36;;;;;;;8.88;5.50;;;;;;;1.87;100.00;93288.75;5052595;28;20443;-66
2023/03/27 04:47:05;;;;;;;11.60;5.10;;;;;;;1.88;100.00;93295.72;5051833;28;20049;-66
2023/03/27 04:49:39;;;;;;;11.30;5.20;;;;;;;2.03;100.00;93298.53;5052245;28;20393;-67
2023/03/27 04:52:06;;;;;;;9.38;5.22;;;;;;;1.91;100.00;93313.13;5057448;28;20044;-69
2023/03/27 04:54:34;;;;;;;11.57;5.32;;;;;;;1.88;100.00;93314.66;5052325;28;20033;-69
2023/03/27 04:57:02;;;;;;;10.88;5.00;;;;;;;1.84;100.00;93323.91;5052391;28;20543;-69
2023/03/27 04:59:30;;;;;;;9.57;4.80;;;;;;;1.80;100.00;93321.16;5051118;28;20166;-69
2023/03/27 05:02:00;;;;;;;11.65;6.05;;;;;;;1.76;100.00;93320.34;5052041;28;20086;-68
2023/03/27 05:04:28;;;;;;;11.95;5.43;;;;;;;1.84;100.00;93340.13;5049804;28;20037;-69
2023/03/27 05:06:56;;;;;;;10.20;4.95;;;;;;;1.77;100.00;93343.53;5052174;28;20466;-69
2023/03/27 05:09:23;;;;;;;10.45;5.03;;;;;;;1.73;100.00;93350.84;5049974;28;20037;-68
2023/03/27 05:11:51;;;;;;;11.13;4.87;;;;;;;1.79;100.00;93357.47;5051808;28;20045;-68
2023/03/27 05:14:19;;;;;;;14.98;5.00;;;;;;;1.58;100.00;93366.94;5051104;28;20441;-67
2023/03/27 05:16:50;;;;;;;17.63;5.57;;;;;;;1.52;100.00;93368.44;5051632;28;20040;-67
2023/03/27 05:19:18;;;;;;;7.18;3.70;;;;;;;1.45;100.00;93376.50;5050917;28;20044;-67
2023/03/27 05:21:46;;;;;;;8.85;4.28;;;;;;;1.48;100.00;93389.25;5052005;28;20036;-67
2023/03/27 05:24:14;;;;;;;5.33;3.03;;;;;;;1.14;100.00;93386.56;5051335;28;20661;-66
2023/03/27 05:26:42;;;;;;;6.80;3.03;;;;;;;1.10;100.00;93401.19;5051541;28;20041;-67
2023/03/27 05:29:09;;;;;;;6.65;3.00;;;;;;;0.86;100.00;93407.84;5051097;28;20620;-68
2023/03/27 05:31:36;;;;;;;5.20;2.35;;;;;;;0.79;100.00;93414.69;5050176;28;20045;-68
2023/03/27 05:34:03;;;;;;;4.85;2.42;;;;;;;0.78;100.00;93418.53;5051060;28;20405;-69
2023/03/27 05:36:29;;;;;;;4.63;2.13;;;;;;;0.86;100.00;93424.03;5051165;28;20443;-69
2023/03/27 05:38:56;;;;;;;4.90;2.22;;;;;;;0.92;100.00;93422.56;5054644;28;20037;-70
2023/03/27 05:41:23;;;;;;;3.88;2.08;;;;;;;0.92;100.00;93438.78;5050815;28;20043;-68
2023/03/27 05:43:50;;;;;;;3.58;1.85;;;;;;;0.81;100.00;93438.66;5051411;28;20126;-70
2023/03/27 05:46:17;;;;;;;7.18;2.58;;;;;;;0.90;100.00;93444.53;5049276;28;20045;-71
2023/03/27 05:48:47;;;;;;;4.13;2.13;;;;;;;0.89;100.00;93453.81;5051249;28;20112;-68
2023/03/27 05:51:16;;;;;;;5.82;2.50;;;;;;;0.86;100.00;93465.34;5063080;28;20048;-70
2023/03/27 05:53:43;;;;;;;5.78;3.30;;;;;;;0.86;100.00;93464.56;5051208;28;20351;-69
2023/03/27 05:56:09;;;;;;;5.30;2.60;;;;;;;0.86;100.00;93459.16;5050719;28;20045;-71
2023/03/27 05:58:37;;;;;;;10.43;5.20;;;;;;;0.87;100.00;93483.13;5050919;28;20474;-72
2023/03/27 06:01:04;;;;;;;5.80;2.50;;;;;;;0.83;100.00;93486.91;5041813;28;20094;-71
2023/03/27 06:03:35;;;;;;;4.43;2.50;;;;;;;0.90;100.00;93485.06;5031441;28;20394;-72
2023/03/27 06:06:11;;;;;;;5.00;2.83;;;;;;;0.75;100.00;93499.53;5046727;28;20122;-70
2023/03/27 06:08:37;;;;;;;5.40;2.60;;;;;;;0.71;100.00;93515.69;5050425;28;20037;-69
2023/03/27 06:11:09;;;;;;;6.07;2.63;;;;;;;0.61;100.00;93526.31;5050423;28;20052;-69
2023/03/27 06:13:36;;;;;;;5.70;2.37;;;;;;;0.33;100.00;93530.88;5050862;28;20044;-70
2023/03/27 06:16:04;;;;;;;4.20;2.30;;;;;;;0.15;100.00;93535.19;5050292;28;20037;-71
2023/03/27 06:18:32;;;;;;;4.65;2.60;;;;;;;0.05;100.00;93543.88;5050288;28;20055;-71
2023/03/27 06:20:59;;;;;;;7.53;3.25;;;;;;;-0.12;100.00;93558.56;5050664;28;20037;-71
2023/03/27 06:23:26;;;;;;;6.90;3.20;;;;;;;-0.30;100.00;93567.13;5049884;28;20037;-71
2023/03/27 06:25:53;;;;;;;8.47;3.33;;;;;;;-0.25;100.00;93568.75;5050642;28;20049;-70
2023/03/27 06:28:20;;;;;;;9.38;3.80;;;;;;;-0.32;100.00;93588.25;5049907;28;20041;-71
2023/03/27 06:30:47;;;;;;;8.75;4.60;;;;;;;-0.32;100.00;93600.94;5050967;28;20029;-69
2023/03/27 06:33:14;;;;;;;10.43;4.10;;;;;;;-0.46;100.00;93596.06;5050054;28;20079;-70
2023/03/27 06:35:44;;;;;;;10.02;3.90;;;;;;;-0.60;100.00;93607.31;5050636;28;20117;-69
2023/03/27 06:38:19;;;;;;;12.40;3.90;;;;;;;-0.71;100.00;93612.44;5052786;28;20045;-70
2023/03/27 06:40:46;;;;;;;10.73;4.22;;;;;;;-0.60;100.00;93618.09;5050437;28;20033;-73
2023/03/27 06:43:16;;;;;;;11.02;4.40;;;;;;;-0.59;100.00;93613.47;5050052;28;20088;-74
2023/03/27 06:45:45;;;;;;;8.80;3.90;;;;;;;-0.54;100.00;93615.88;5041914;28;20034;-75
2023/03/27 06:48:12;;;;;;;13.02;4.32;;;;;;;-0.69;100.00;93612.13;5034127;28;20045;-76
2023/03/27 06:50:49;;;;;;;12.17;5.20;;;;;;;-0.44;100.00;93618.81;5058668;28;20408;-74
2023/03/27 06:53:16;;;;;;;11.35;4.25;;;;;;;-0.35;100.00;93623.22;5052002;28;20059;-73
2023/03/27 06:55:48;;;;;;;13.68;4.35;;;;;;;-0.27;100.00;93636.50;5050018;28;20048;-75
2023/03/27 06:58:17;;;;;;;11.32;4.32;;;;;;;-0.21;100.00;93631.63;5049063;28;20049;-75
2023/03/27 07:00:45;;;;;;;10.35;4.10;;;;;;;0.21;100.00;93639.00;5049851;28;20041;-74
2023/03/27 07:03:12;;;;;;;10.27;4.57;;;;;;;0.49;100.00;93646.06;5049066;28;20041;-71
2023/03/27 07:05:39;;;;;;;11.15;4.32;;;;;;;0.82;100.00;93650.13;5049869;28;20040;-73
2023/03/27 07:08:11;;;;;;;9.65;4.53;;;;;;;0.61;100.00;93659.41;5049190;28;20409;-73
2023/03/27 07:10:51;;;;;;;12.38;4.88;;;;;;;0.50;100.00;93661.13;5049694;28;20037;-76
2023/03/27 07:13:36;;;;;;;12.38;4.88;;;;;;;0.14;100.00;93663.94;5047788;28;20598;-77
2023/03/27 07:16:03;;;;;;;10.07;4.77;;;;;;;0.38;100.00;93679.06;5049053;28;20044;-76
2023/03/27 07:18:30;;;;;;;10.13;4.47;;;;;;;0.46;100.00;93671.06;5049473;28;20386;-76
2023/03/27 07:20:57;;;;;;;12.18;5.15;;;;;;;0.23;100.00;93684.53;5049659;28;20245;-73
2023/03/27 07:23:24;;;;;;;15.32;6.05;;;;;;;0.10;100.00;93690.06;5049276;28;20049;-74
2023/03/27 07:25:56;;;;;;;14.07;6.13;;;;;;;0.17;100.00;93689.41;5049674;28;20037;-76
2023/03/27 07:28:23;;;;;;;12.00;5.17;;;;;;;0.18;100.00;93699.88;5049349;28;20064;-74
2023/03/27 07:30:50;;;;;;;13.35;5.45;;;;;;;0.19;100.00;93712.22;5049052;28;20063;-76
2023/03/27 07:33:17;;;;;;;10.75;5.90;;;;;;;0.35;100.00;93712.16;5049081;28;20041;-70
2023/03/27 07:35:46;;;;;;;12.07;4.85;;;;;;;0.22;100.00;93721.50;5049358;28;20045;-72
2023/03/27 07:38:14;;;;;;;12.40;5.50;;;;;;;0.21;100.00;93725.34;5053775;28;20033;-74
2023/03/27 07:40:43;;;;;;;13.00;4.80;;;;;;;0.46;100.00;93722.38;5054712;28;20041;-73
2023/03/27 07:43:09;;;;;;;11.02;4.75;;;;;;;0.32;100.00;93734.47;5048578;28;20041;-75
2023/03/27 07:45:36;;;;;;;11.35;5.05;;;;;;;0.73;100.00;93739.50;5043309;28;20041;-75
2023/03/27 07:48:09;;;;;;;12.57;5.25;;;;;;;1.15;100.00;93736.00;5032392;28;20417;-74
2023/03/27 07:50:36;;;;;;;13.93;6.75;;;;;;;1.79;100.00;93739.72;5051542;28;20067;-75
2023/03/27 07:53:05;;;;;;;14.23;5.40;;;;;;;3.09;100.00;93742.09;5048787;28;20127;-75
2023/03/27 07:55:32;;;;;;;10.45;4.30;;;;;;;3.82;100.00;93744.28;5048970;28;20029;-74
2023/03/27 07:57:59;;;;;;;10.30;4.60;;;;;;;2.54;100.00;93753.50;5049098;28;20059;-73
2023/03/27 08:00:30;;;;;;;11.07;4.60;;;;;;;2.73;100.00;93754.50;5034829;28;22810;-72
2023/03/27 08:03:08;;;;;;;9.52;4.10;;;;;;;2.01;100.00;93756.25;5048884;28;20037;-71
2023/03/27 08:05:36;;;;;;;8.27;3.70;;;;;;;2.07;100.00;93757.50;5048034;28;20041;-71
2023/03/27 08:08:03;;;;;;;10.68;3.90;;;;;;;1.60;100.00;93753.34;5048699;28;20040;-72
2023/03/27 08:10:30;;;;;;;8.55;3.75;;;;;;;1.55;100.00;93761.75;5052196;28;20037;-73
2023/03/27 08:12:57;;;;;;;8.90;3.28;;;;;;;1.21;100.00;93777.81;5053038;28;20081;-71
2023/03/27 08:15:24;;;;;;;7.78;3.42;;;;;;;1.91;100.00;93773.13;5052400;28;20431;-72
2023/03/27 08:17:53;;;;;;;13.23;3.67;;;;;;;2.50;100.00;93782.47;5052670;28;20045;-70
2023/03/27 08:20:22;;;;;;;10.55;3.95;;;;;;;3.85;100.00;93789.69;5052621;28;20370;-73
2023/03/27 08:22:51;;;;;;;8.15;3.50;;;;;;;7.55;83.81;93779.25;5039703;28;20415;-74
2023/03/27 08:25:21;;;;;;;9.35;3.55;;;;;;;4.45;88.08;93788.56;5052315;28;20053;-71
2023/03/27 08:27:48;;;;;;;7.25;3.40;;;;;;;3.48;100.00;93789.75;5051545;28;20037;-69
2023/03/27 08:30:15;;;;;;;8.20;3.37;;;;;;;5.01;92.97;93794.66;5052138;28;20041;-71
2023/03/27 08:32:43;;;;;;;10.10;3.10;;;;;;;8.51;74.94;93791.41;5052587;28;20650;-70
2023/03/27 08:35:10;;;;;;;5.43;3.10;;;;;;;8.83;63.98;93792.25;5052260;28;20044;-72
2023/03/27 08:37:38;;;;;;;6.15;2.90;;;;;;;8.27;63.33;93801.38;5052960;28;20033;-70
2023/03/27 08:40:12;;;;;;;6.63;3.13;;;;;;;8.72;60.57;93809.56;5059369;28;20037;-68
2023/03/27 08:42:42;;;;;;;5.50;2.60;;;;;;;9.43;59.60;93817.41;5040168;28;20387;-70
2023/03/27 08:45:27;;;;;;;10.50;4.20;;;;;;;7.36;62.50;93826.91;5045607;28;20033;-71
2023/03/27 08:48:18;;;;;;;7.38;3.53;;;;;;;5.34;64.16;93836.34;5034702;28;20103;-70
2023/03/27 08:50:53;;;;;;;9.50;3.72;;;;;;;5.65;62.92;93839.53;5053186;28;20518;-70
2023/03/27 08:53:46;;;;;;;7.15;3.70;;;;;;;9.27;54.96;93837.91;5051743;28;20090;-71
2023/03/27 08:56:19;;;;;;;8.93;3.63;;;;;;;8.80;52.14;93843.13;5051879;28;20037;-71
2023/03/27 08:58:47;;;;;;;7.60;4.40;;;;;;;9.35;50.19;93844.09;5052247;28;20037;-70
2023/03/27 09:01:25;;;;;;;9.43;3.05;;;;;;;12.31;48.84;93844.91;5051867;28;20041;-70
2023/03/27 09:04:11;;;;;;;8.55;3.00;;;;;;;9.89;52.36;93852.41;5052072;28;20045;-70
2023/03/27 09:06:49;;;;;;;8.38;2.95;;;;;;;5.45;59.62;93867.09;5051243;28;20351;-69
2023/03/27 09:09:37;;;;;;;7.63;3.63;;;;;;;5.70;62.83;93861.72;5051778;28;20052;-69
2023/03/27 09:12:19;;;;;;;7.25;3.67;;;;;;;6.90;59.03;93868.78;5050276;28;20060;-70
2023/03/27 09:14:53;;;;;;;9.45;3.88;;;;;;;6.62;58.94;93884.03;5052294;28;20085;-72
2023/03/27 09:17:30;;;;;;;8.30;3.83;;;;;;;6.10;61.69;93883.63;5051341;28;20048;-73
2023/03/27 09:20:05;;;;;;;12.95;3.10;;;;;;;6.10;61.22;93883.63;5051273;28;20385;-73
2023/03/27 09:22:42;;;;;;;9.30;4.20;;;;;;;9.80;53.25;93869.38;5050723;28;20757;-73
2023/03/27 09:25:30;;;;;;;10.07;4.85;;;;;;;11.59;42.25;93876.66;5042895;28;20138;-71
2023/03/27 09:27:59;;;;;;;8.50;4.28;;;;;;;11.00;41.98;93869.13;5063900;28;20052;-70
2023/03/27 09:30:31;;;;;;;8.55;3.70;;;;;;;12.15;43.65;93875.94;5051129;28;20045;-70
2023/03/27 09:33:03;;;;;;;7.70;3.75;;;;;;;12.67;41.67;93884.59;5051612;28;20097;-70
2023/03/27 09:35:33;;;;;;;6.03;2.70;;;;;;;9.43;44.33;93896.81;5050705;28;21554;-70
2023/03/27 09:38:09;;;;;;;8.27;3.80;;;;;;;8.47;50.31;93905.53;5055017;28;20040;-69
2023/03/27 09:40:45;;;;;;;8.13;3.70;;;;;;;7.35;51.76;93902.56;5055717;28;20180;-69
2023/03/27 09:43:19;;;;;;;6.78;2.80;;;;;;;8.66;50.42;93917.88;5050888;28;20043;-70
2023/03/27 09:45:52;;;;;;;5.80;3.08;;;;;;;6.81;52.23;93915.56;5039690;28;20049;-69
2023/03/27 09:48:52;;;;;;;7.10;2.90;;;;;;;6.84;53.87;93925.69;5031015;28;20042;-70
2023/03/27 09:51:36;;;;;;;6.53;3.22;;;;;;;7.17;51.98;93926.41;5058648;28;20064;-70
2023/03/27 09:54:03;;;;;;;7.18;2.83;;;;;;;10.54;46.15;93928.31;5050821;28;20440;-71
2023/03/27 09:56:35;;;;;;;6.88;3.30;;;;;;;8.05;47.69;93928.41;5051357;28;20037;-70
2023/03/27 09:59:18;;;;;;;10.57;2.92;;;;;;;12.08;43.95;93927.56;5049225;28;20114;-66
2023/03/27 10:01:47;;;;;;;8.93;3.00;;;;;;;14.09;37.79;93926.19;5051292;28;20045;-70
2023/03/27 10:04:17;;;;;;;7.60;2.40;;;;;;;15.31;34.89;93939.06;5048988;28;20046;-70
2023/03/27 10:06:50;;;;;;;4.93;1.98;;;;;;;14.69;33.65;93930.38;5049662;28;20045;-70
2023/03/27 10:09:26;;;;;;;7.75;2.80;;;;;;;10.76;40.51;93939.72;5049124;28;20269;-71
2023/03/27 10:12:06;;;;;;;11.38;3.90;;;;;;;9.31;43.21;93950.16;5051335;28;20435;-70
2023/03/27 10:14:40;;;;;;;11.30;3.10;;;;;;;9.07;45.79;93960.16;5037960;28;20678;-70
2023/03/27 10:17:24;;;;;;;6.97;3.97;;;;;;;8.98;44.94;93964.13;5050088;28;20041;-70
2023/03/27 10:19:58;;;;;;;8.43;4.88;;;;;;;10.46;43.17;93957.81;5049308;28;20051;-70
2023/03/27 10:22:32;;;;;;;5.43;2.60;;;;;;;11.79;38.84;93958.34;5050160;28;20037;-71
2023/03/27 10:25:03;;;;;;;5.85;3.28;;;;;;;9.39;41.63;93959.84;5050769;28;20040;-70
2023/03/27 10:27:34;;;;;;;7.27;3.53;;;;;;;9.85;42.63;93966.03;5049685;28;20822;-70
2023/03/27 10:30:22;;;;;;;6.65;3.40;;;;;;;9.60;43.77;93967.84;5049480;28;20102;-71
2023/03/27 10:32:48;;;;;;;6.90;3.13;;;;;;;10.25;40.46;93971.81;5049149;28;20327;-71
2023/03/27 10:35:21;;;;;;;7.45;2.85;;;;;;;10.83;38.08;93978.06;5049903;28;20052;-71
2023/03/27 10:37:50;;;;;;;6.55;2.63;;;;;;;13.92;33.31;93966.88;5052164;28;20074;-70
2023/03/27 10:40:20;;;;;;;9.00;3.00;;;;;;;11.17;36.64;93968.91;5053250;28;20557;-70
2023/03/27 10:42:47;;;;;;;6.85;3.78;;;;;;;10.10;38.26;93979.41;5050359;28;20086;-70
2023/03/27 10:45:19;;;;;;;7.75;3.72;;;;;;;9.38;40.26;93991.94;5049807;28;20040;-69
2023/03/27 10:47:51;;;;;;;7.93;3.83;;;;;;;8.55;45.04;93997.31;5049928;28;20405;-69
2023/03/27 10:50:52;;;;;;;6.15;2.58;;;;;;;7.52;46.19;94009.41;5049806;28;20049;-70
2023/03/27 10:53:50;;;;;;;5.70;2.67;;;;;;;9.14;45.26;94003.91;5049571;28;20044;-69
2023/03/27 10:56:26;;;;;;;5.65;2.55;;;;;;;12.47;38.02;93997.50;5020361;28;20040;-71
2023/03/27 10:59:07;;;;;;;6.57;3.20;;;;;;;11.74;36.89;94000.88;5030069;28;20038;-70
2023/03/27 11:01:42;;;;;;;5.57;2.70;;;;;;;12.97;36.56;94001.91;5029456;28;21656;-71
2023/03/27 11:04:39;;;;;;;5.07;1.98;;;;;;;14.78;31.31;93996.78;5017036;28;20385;-71
2023/03/27 11:07:14;;;;;;;8.97;2.20;;;;;;;9.92;34.45;94013.31;5029592;28;20516;-71
2023/03/27 11:09:55;;;;;;;6.25;2.15;;;;;;;8.36;37.27;94017.69;5030124;28;20103;-71
2023/03/27 11:12:26;;;;;;;5.82;2.70;;;;;;;8.30;41.09;94011.06;5029255;28;20065;-70
2023/03/27 11:15:10;;;;;;;5.82;2.40;;;;;;;7.96;41.02;94025.28;5029773;28;20484;-70
2023/03/27 11:17:43;;;;;;;5.82;2.78;;;;;;;6.76;43.04;94025.84;5028875;28;20647;-70
2023/03/27 11:20:19;;;;;;;6.23;2.83;;;;;;;5.75;43.55;94034.84;5029027;28;20041;-69
2023/03/27 11:22:58;;;;;;;7.40;2.60;;;;;;;7.89;39.58;94036.25;5018872;28;20471;-71
2023/03/27 11:25:45;;;;;;;6.80;2.60;;;;;;;9.62;36.84;94035.16;5022121;28;20137;-71
2023/03/27 11:28:22;;;;;;;5.18;1.88;;;;;;;12.79;30.81;94027.88;5028063;28;20056;-70
2023/03/27 11:31:04;;;;;;;4.50;2.22;;;;;;;9.92;33.57;94032.50;5027959;28;20037;-71
2023/03/27 11:33:39;;;;;;;4.33;2.40;;;;;;;5.93;40.43;94048.53;5015635;28;20102;-69
2023/03/27 11:36:31;;;;;;;5.18;2.25;;;;;;;6.84;39.26;94051.19;5027386;28;20037;-70
2023/03/27 11:39:05;;;;;;;5.95;2.75;;;;;;;8.85;39.01;94045.16;5044475;28;20045;-71
2023/03/27 11:41:32;;;;;;;4.65;2.30;;;;;;;8.06;39.34;94048.28;5028482;28;20669;-69
2023/03/27 11:43:58;;;;;;;4.30;2.08;;;;;;;7.87;39.87;94051.44;5029467;28;20459;-70
2023/03/27 11:47:04;;;;;;;5.83;2.07;;;;;;;7.20;39.92;94053.91;5028744;28;20071;-72
2023/03/27 11:49:56;;;;;;;3.95;2.00;;;;;;;7.76;39.79;94056.97;4966987;28;21939;-70
2023/03/27 11:52:50;;;;;;;6.03;2.80;;;;;;;7.15;41.07;94048.84;4967506;28;20499;-71
2023/03/27 11:55:25;;;;;;;5.07;1.83;;;;;;;6.94;40.70;94050.41;5018263;28;20041;-70
2023/03/27 11:58:10;;;;;;;5.03;2.20;;;;;;;7.60;37.28;94052.69;5029008;28;20048;-71
2023/03/27 12:00:48;;;;;;;6.13;2.10;;;;;;;5.73;39.79;94045.31;5028286;28;20108;-70
2023/03/27 12:03:54;;;;;;;7.88;2.00;;;;;;;5.56;40.49;94060.41;5028655;28;20393;-70